Time;durP1;ratioP1;P1;durP2;ratioP2;P2;SDS_P1;SDS_P2;PMS_P1;PMS_P2;Temp;Humidity;BMP_temperature;BMP_pressure;BME280_temperature;BME280_humidity;BME280_pressure;Samples;Min_cycle;Max_cycle;Signal;HPM_P1;HPM_P2
2022/04/16 00:00:11;;;;;;;4.70;4.30;;;9.00;99.90;;;;;;5032195;28;20033;-63
2022/04/16 00:02:38;;;;;;;4.30;3.90;;;9.00;99.90;;;;;;5031467;28;20378;-63
2022/04/16 00:05:05;;;;;;;4.60;4.20;;;8.90;99.90;;;;;;5046548;28;20036;-63
2022/04/16 00:07:31;;;;;;;4.88;4.35;;;9.00;99.90;;;;;;5052837;28;20025;-62
2022/04/16 00:09:56;;;;;;;12.55;5.18;;;9.00;99.90;;;;;;5033813;28;20030;-63
2022/04/16 00:12:22;;;;;;;4.72;4.32;;;9.10;99.90;;;;;;5032243;28;20071;-63
2022/04/16 00:14:49;;;;;;;5.00;4.40;;;9.10;99.90;;;;;;5034709;28;20132;-62
2022/04/16 00:17:16;;;;;;;7.32;4.05;;;9.10;99.90;;;;;;5032785;28;20031;-62
2022/04/16 00:19:43;;;;;;;6.47;4.75;;;9.10;99.90;;;;;;5044958;28;20083;-62
2022/04/16 00:22:12;;;;;;;5.00;4.18;;;9.10;99.90;;;;;;5052871;28;20025;-64
2022/04/16 00:24:41;;;;;;;4.55;4.15;;;9.10;99.90;;;;;;5051432;28;20032;-62
2022/04/16 00:27:09;;;;;;;6.53;4.57;;;9.10;99.90;;;;;;5050999;28;20097;-62
2022/04/16 00:29:39;;;;;;;4.93;4.43;;;9.20;99.90;;;;;;5052775;28;20020;-62
2022/04/16 00:32:05;;;;;;;4.95;4.45;;;9.20;99.90;;;;;;5051469;28;20029;-62
2022/04/16 00:34:35;;;;;;;4.57;4.18;;;9.20;99.90;;;;;;5052657;28;20400;-62
2022/04/16 00:37:01;;;;;;;6.10;4.68;;;9.10;99.90;;;;;;5052730;28;20033;-61
2022/04/16 00:39:27;;;;;;;5.75;5.25;;;9.10;99.90;;;;;;5037943;28;20029;-63
2022/04/16 00:41:53;;;;;;;4.75;4.30;;;9.20;99.90;;;;;;5039829;28;20036;-62
2022/04/16 00:44:20;;;;;;;7.68;4.68;;;9.20;99.90;;;;;;5032535;28;20087;-63
2022/04/16 00:46:46;;;;;;;4.60;4.20;;;9.30;99.90;;;;;;5032771;28;20056;-63
2022/04/16 00:49:12;;;;;;;4.95;4.53;;;9.30;99.90;;;;;;5051019;28;20033;-63
2022/04/16 00:51:43;;;;;;;6.43;4.82;;;9.30;99.90;;;;;;5040742;28;20067;-62
2022/04/16 00:54:09;;;;;;;8.52;4.95;;;9.20;99.90;;;;;;5046202;28;20025;-64
2022/04/16 00:56:36;;;;;;;4.88;4.40;;;9.30;99.90;;;;;;5044058;28;20021;-63
2022/04/16 00:59:04;;;;;;;5.40;4.90;;;9.20;99.90;;;;;;5052084;28;20374;-63
2022/04/16 01:01:30;;;;;;;4.55;4.15;;;9.20;99.90;;;;;;5051983;28;20029;-62
2022/04/16 01:03:56;;;;;;;6.05;5.25;;;9.10;99.90;;;;;;5051483;28;20025;-62
2022/04/16 01:06:22;;;;;;;4.43;4.13;;;9.20;99.90;;;;;;5034977;28;20473;-63
2022/04/16 01:08:48;;;;;;;5.35;4.88;;;9.20;99.90;;;;;;5040267;28;20461;-62
2022/04/16 01:11:15;;;;;;;5.68;4.88;;;9.20;99.90;;;;;;5048477;28;20026;-62
2022/04/16 01:13:41;;;;;;;5.70;5.20;;;9.20;99.90;;;;;;5032349;28;20026;-63
2022/04/16 01:16:07;;;;;;;5.93;5.32;;;9.10;99.90;;;;;;5035242;28;20060;-62
2022/04/16 01:18:45;;;;;;;6.68;5.20;;;9.10;99.90;;;;;;5049059;28;20017;-63
2022/04/16 01:21:11;;;;;;;5.60;5.10;;;9.00;99.90;;;;;;5051734;28;20108;-63
2022/04/16 01:23:37;;;;;;;5.60;5.10;;;9.00;99.90;;;;;;5044493;28;20587;-62
2022/04/16 01:26:02;;;;;;;5.07;4.57;;;8.90;99.90;;;;;;5046284;28;20022;-62
2022/04/16 01:28:28;;;;;;;5.82;5.28;;;8.90;99.90;;;;;;5049304;28;20480;-62
2022/04/16 01:30:54;;;;;;;6.10;5.50;;;8.80;99.90;;;;;;5051378;28;20036;-63
2022/04/16 01:33:21;;;;;;;5.60;5.10;;;8.80;99.90;;;;;;5051400;28;20044;-62
2022/04/16 01:35:51;;;;;;;15.73;5.90;;;8.80;99.90;;;;;;5039742;28;20029;-62
2022/04/16 01:38:17;;;;;;;5.55;5.05;;;8.70;99.90;;;;;;5032707;28;20369;-62
2022/04/16 01:40:42;;;;;;;5.80;5.20;;;8.70;99.90;;;;;;5030447;28;20038;-63
2022/04/16 01:43:08;;;;;;;6.57;5.70;;;8.60;99.90;;;;;;5040661;28;20025;-63
2022/04/16 01:45:34;;;;;;;6.85;6.20;;;8.60;99.90;;;;;;5051164;28;20473;-61
2022/04/16 01:48:00;;;;;;;5.68;5.18;;;8.50;99.90;;;;;;5047464;28;20025;-63
2022/04/16 01:50:26;;;;;;;7.03;6.05;;;8.50;99.90;;;;;;5031141;28;20026;-61
2022/04/16 01:52:52;;;;;;;6.75;5.70;;;8.50;99.90;;;;;;5032485;28;20028;-61
2022/04/16 01:55:18;;;;;;;7.63;6.03;;;8.50;99.90;;;;;;5048389;28;20507;-62
2022/04/16 01:57:43;;;;;;;5.60;5.10;;;8.50;99.90;;;;;;5050145;28;20033;-62
2022/04/16 02:00:12;;;;;;;6.28;5.68;;;8.40;99.90;;;;;;5041857;28;20493;-63
2022/04/16 02:02:38;;;;;;;5.65;5.15;;;8.50;99.90;;;;;;5031364;28;20029;-63
2022/04/16 02:05:08;;;;;;;7.72;5.93;;;8.50;99.90;;;;;;5049578;28;20032;-63
2022/04/16 02:07:34;;;;;;;6.93;5.50;;;8.40;99.90;;;;;;5050705;28;20013;-64
2022/04/16 02:10:00;;;;;;;5.85;5.35;;;8.50;99.90;;;;;;5050636;28;20499;-62
2022/04/16 02:12:26;;;;;;;6.88;5.40;;;8.50;99.90;;;;;;5043963;28;20037;-61
2022/04/16 02:14:52;;;;;;;6.00;5.30;;;8.40;99.90;;;;;;5046019;28;20049;-63
2022/04/16 02:17:18;;;;;;;5.95;5.35;;;8.30;99.90;;;;;;5049424;28;20044;-63
2022/04/16 02:19:43;;;;;;;6.47;5.78;;;8.10;99.90;;;;;;5034056;28;20033;-64
2022/04/16 02:22:10;;;;;;;5.78;5.18;;;8.10;99.90;;;;;;5030434;28;20037;-63
2022/04/16 02:24:36;;;;;;;5.72;5.22;;;8.20;99.90;;;;;;5043326;28;20112;-63
2022/04/16 02:27:02;;;;;;;5.90;5.40;;;8.20;99.90;;;;;;5047820;28;20470;-63
2022/04/16 02:29:28;;;;;;;6.35;5.75;;;8.20;99.90;;;;;;5031346;28;20025;-62
2022/04/16 02:31:53;;;;;;;5.55;4.88;;;8.20;99.90;;;;;;5030715;28;20365;-62
2022/04/16 02:34:19;;;;;;;5.85;5.22;;;8.20;99.90;;;;;;5041204;28;20111;-61
2022/04/16 02:36:45;;;;;;;7.35;5.90;;;8.10;99.90;;;;;;5050695;28;20033;-61
2022/04/16 02:39:11;;;;;;;5.95;5.45;;;8.10;99.90;;;;;;5050674;28;20031;-62
2022/04/16 02:41:36;;;;;;;6.50;5.90;;;8.10;99.90;;;;;;5050851;28;20040;-61
2022/04/16 02:44:02;;;;;;;6.50;5.90;;;8.00;99.90;;;;;;5043480;28;20037;-61
2022/04/16 02:49:13;;;;;;;5.90;5.32;;;8.00;99.90;;;;;;5049188;28;20052;-61
2022/04/16 02:51:39;;;;;;;6.70;6.10;;;8.00;99.90;;;;;;5050591;28;20033;-61
2022/04/16 02:54:05;;;;;;;11.90;5.93;;;8.00;99.90;;;;;;5041178;28;20641;-63
2022/04/16 02:56:31;;;;;;;6.50;5.88;;;8.00;99.90;;;;;;5032049;28;20408;-62
2022/04/16 02:58:57;;;;;;;6.72;6.03;;;8.00;99.90;;;;;;5049257;28;20029;-63
2022/04/16 03:01:23;;;;;;;6.43;5.85;;;8.00;99.90;;;;;;5050506;28;20123;-63
2022/04/16 03:03:49;;;;;;;8.77;5.97;;;8.00;99.90;;;;;;5052390;28;20033;-61
2022/04/16 03:06:14;;;;;;;6.40;5.78;;;8.00;99.90;;;;;;5050404;28;20021;-62
2022/04/16 03:08:40;;;;;;;6.45;5.85;;;8.10;99.90;;;;;;5044737;28;20017;-61
2022/04/16 03:11:05;;;;;;;6.10;5.55;;;8.10;99.90;;;;;;5033731;28;20025;-63
2022/04/16 03:13:34;;;;;;;5.93;5.43;;;8.20;99.90;;;;;;5034323;28;20035;-62
2022/04/16 03:18:48;;;;;;;6.03;5.43;;;8.20;99.90;;;;;;5040553;28;20535;-62
2022/04/16 03:21:14;;;;;;;7.88;5.95;;;8.20;99.90;;;;;;5033010;28;20484;-62
2022/04/16 03:23:40;;;;;;;5.70;5.20;;;8.20;99.90;;;;;;5034464;28;20516;-62
2022/04/16 03:26:06;;;;;;;5.18;4.72;;;8.30;99.90;;;;;;5033003;28;20105;-62
2022/04/16 03:28:36;;;;;;;6.18;5.68;;;8.30;99.90;;;;;;5035226;28;20034;-62
2022/04/16 03:31:02;;;;;;;6.47;5.88;;;8.30;99.90;;;;;;5034062;28;20460;-64
2022/04/16 03:33:28;;;;;;;7.05;6.25;;;8.30;99.90;;;;;;5034380;28;20113;-63
2022/04/16 03:35:54;;;;;;;6.50;5.90;;;8.20;99.90;;;;;;5034123;28;20532;-62
2022/04/16 03:38:19;;;;;;;13.07;6.63;;;8.30;99.90;;;;;;5046536;28;20033;-62
2022/04/16 03:40:48;;;;;;;5.72;5.20;;;8.30;99.90;;;;;;5053898;28;20037;-63
2022/04/16 03:43:14;;;;;;;8.70;5.55;;;8.30;99.90;;;;;;5053467;28;20380;-61
2022/04/16 03:45:39;;;;;;;6.20;5.60;;;8.30;99.90;;;;;;5053307;28;20021;-62
2022/04/16 03:48:06;;;;;;;6.90;6.30;;;8.40;99.90;;;;;;5036209;28;20109;-61
2022/04/16 03:50:34;;;;;;;7.35;6.20;;;8.30;99.90;;;;;;5034712;28;20036;-62
2022/04/16 03:53:00;;;;;;;6.10;5.50;;;8.40;99.90;;;;;;5033493;28;20633;-63
2022/04/16 04:01:16;;;;;;;6.15;5.57;;;8.30;99.90;;;;;;5033725;28;20107;-62
2022/04/16 04:03:42;;;;;;;8.15;5.45;;;8.30;99.90;;;;;;5033269;28;20092;-62
2022/04/16 04:06:08;;;;;;;5.80;5.30;;;8.30;99.90;;;;;;5042051;28;20151;-62
2022/04/16 04:08:34;;;;;;;6.05;5.55;;;8.30;99.90;;;;;;5040368;28;20033;-62
2022/04/16 04:10:59;;;;;;;9.48;5.97;;;8.40;99.90;;;;;;5033746;28;20038;-61
2022/04/16 04:13:25;;;;;;;5.97;5.38;;;8.40;99.90;;;;;;5032898;28;20059;-63
2022/04/16 04:15:50;;;;;;;5.53;5.03;;;8.50;99.90;;;;;;5033043;28;20056;-63
2022/04/16 04:18:16;;;;;;;5.80;5.30;;;8.60;99.90;;;;;;5046640;28;20025;-62
2022/04/16 04:20:42;;;;;;;6.97;5.93;;;8.60;99.90;;;;;;5053164;28;20051;-62
2022/04/16 04:23:07;;;;;;;5.55;5.05;;;8.60;99.90;;;;;;5052460;28;20033;-63
2022/04/16 04:25:33;;;;;;;5.75;5.20;;;8.50;99.90;;;;;;5049672;28;20043;-63
2022/04/16 04:27:59;;;;;;;5.95;5.25;;;8.50;99.90;;;;;;5044884;28;20029;-61
2022/04/16 04:30:25;;;;;;;5.90;5.40;;;8.50;99.90;;;;;;5032486;28;20025;-62
2022/04/16 04:32:51;;;;;;;6.45;5.85;;;8.50;99.90;;;;;;5033670;28;20612;-62
2022/04/16 04:35:16;;;;;;;5.60;5.05;;;8.50;99.90;;;;;;5032432;28;20026;-62
2022/04/16 04:37:42;;;;;;;6.15;5.60;;;8.50;99.90;;;;;;5037647;28;20017;-61
2022/04/16 04:40:08;;;;;;;6.28;5.30;;;8.50;99.90;;;;;;5051874;28;20033;-63
2022/04/16 04:42:35;;;;;;;5.57;5.07;;;8.50;99.90;;;;;;5052611;28;20036;-62
2022/04/16 04:45:09;;;;;;;7.78;5.20;;;8.50;99.90;;;;;;5052185;28;20112;-63
2022/04/16 04:47:35;;;;;;;7.70;5.38;;;8.60;99.90;;;;;;5048451;28;20022;-63
2022/04/16 04:50:01;;;;;;;5.68;5.18;;;8.70;99.90;;;;;;5033775;28;20088;-62
2022/04/16 04:52:27;;;;;;;6.57;5.97;;;8.60;99.90;;;;;;5032793;28;20655;-62
2022/04/16 04:54:59;;;;;;;5.40;4.90;;;8.70;99.90;;;;;;5032137;28;20036;-61
2022/04/16 04:57:26;;;;;;;7.00;5.50;;;8.70;99.90;;;;;;5042870;28;20079;-61
2022/04/16 04:59:52;;;;;;;5.70;5.20;;;8.70;99.90;;;;;;5032342;28;20070;-62
2022/04/16 05:02:18;;;;;;;5.75;5.25;;;8.80;99.90;;;;;;5032681;28;20116;-62
2022/04/16 05:04:44;;;;;;;11.20;4.90;;;8.70;99.90;;;;;;5050309;28;20032;-62
2022/04/16 05:07:10;;;;;;;7.35;6.65;;;8.60;99.90;;;;;;5042009;28;20033;-63
2022/04/16 05:09:36;;;;;;;8.25;5.78;;;8.60;99.90;;;;;;5050077;28;20029;-62
2022/04/16 05:12:03;;;;;;;5.88;5.38;;;8.50;99.90;;;;;;5052118;28;20025;-63
2022/04/16 05:14:28;;;;;;;6.13;5.55;;;8.60;99.90;;;;;;5051750;28;20037;-63
2022/04/16 05:16:54;;;;;;;8.48;5.20;;;8.50;99.90;;;;;;5044091;28;20026;-63
2022/04/16 05:19:19;;;;;;;6.05;5.55;;;8.50;99.90;;;;;;5042725;28;20051;-62
2022/04/16 05:21:45;;;;;;;7.40;5.47;;;8.60;99.90;;;;;;5031890;28;20025;-62
2022/04/16 05:24:11;;;;;;;7.20;6.05;;;8.60;99.90;;;;;;5032061;28;20038;-62
2022/04/16 05:26:38;;;;;;;6.00;5.50;;;8.60;99.90;;;;;;5031372;28;20017;-62
2022/04/16 05:29:04;;;;;;;6.30;5.70;;;8.60;99.90;;;;;;5032731;28;20032;-63
2022/04/16 05:31:30;;;;;;;6.03;5.38;;;8.60;99.90;;;;;;5031874;28;20040;-63
2022/04/16 05:36:42;;;;;;;5.28;4.88;;;8.70;99.90;;;;;;5031941;28;20064;-62
2022/04/16 05:39:08;;;;;;;5.82;5.22;;;8.80;99.90;;;;;;5046900;28;20032;-62
2022/04/16 05:41:34;;;;;;;6.03;5.45;;;8.80;99.90;;;;;;5051924;28;20032;-62
2022/04/16 05:44:00;;;;;;;5.43;4.93;;;8.90;99.90;;;;;;5038208;28;20033;-63
2022/04/16 05:46:26;;;;;;;6.45;5.85;;;9.00;99.90;;;;;;5031422;28;20071;-62
2022/04/16 05:48:52;;;;;;;7.03;5.90;;;8.90;99.90;;;;;;5044305;28;20021;-62
2022/04/16 05:51:18;;;;;;;6.38;5.78;;;9.00;99.90;;;;;;5047510;28;20021;-63
2022/04/16 05:53:46;;;;;;;5.65;5.15;;;9.10;99.90;;;;;;5051198;28;20430;-63
2022/04/16 05:56:12;;;;;;;6.13;5.63;;;9.20;99.90;;;;;;5051467;28;20025;-62
2022/04/16 05:58:38;;;;;;;6.07;5.47;;;9.20;99.90;;;;;;5044210;28;20025;-62
2022/04/16 06:01:03;;;;;;;7.20;6.40;;;9.20;99.90;;;;;;5045726;28;20484;-63
2022/04/16 06:03:30;;;;;;;8.13;7.38;;;9.30;99.90;;;;;;5050200;28;20110;-62
2022/04/16 06:05:57;;;;;;;6.55;5.95;;;9.40;99.90;;;;;;5031514;28;20034;-62
2022/04/16 06:08:22;;;;;;;7.07;5.90;;;9.40;99.90;;;;;;5030841;28;20025;-62
2022/04/16 06:10:48;;;;;;;6.55;5.93;;;9.30;99.90;;;;;;5030103;28;20040;-62
2022/04/16 06:13:14;;;;;;;6.60;6.00;;;9.20;99.90;;;;;;5030584;28;20018;-62
2022/04/16 06:15:41;;;;;;;6.75;6.10;;;9.20;99.90;;;;;;5049093;28;20056;-62
2022/04/16 06:18:08;;;;;;;7.65;5.32;;;9.10;99.90;;;;;;5047066;28;20048;-63
2022/04/16 06:20:34;;;;;;;6.05;5.45;;;9.00;99.90;;;;;;5038975;28;20021;-64
2022/04/16 06:22:59;;;;;;;7.13;5.70;;;8.90;99.90;;;;;;5043109;28;20330;-62
2022/04/16 06:25:25;;;;;;;6.53;5.60;;;9.00;99.90;;;;;;5049294;28;20036;-62
2022/04/16 06:27:51;;;;;;;6.15;5.43;;;9.10;99.90;;;;;;5050732;28;20470;-61
2022/04/16 06:30:16;;;;;;;7.80;6.43;;;9.10;99.90;;;;;;5050866;28;20643;-62
2022/04/16 06:32:42;;;;;;;11.10;7.40;;;9.20;99.90;;;;;;5050293;28;20021;-63
2022/04/16 06:35:08;;;;;;;8.13;6.70;;;9.30;99.90;;;;;;5039664;28;20437;-62
2022/04/16 06:37:37;;;;;;;14.60;11.23;;;9.40;99.90;;;;;;5045303;28;20037;-63
2022/04/16 06:40:03;;;;;;;7.50;6.40;;;9.20;99.90;;;;;;5054376;28;20032;-63
2022/04/16 06:42:29;;;;;;;6.82;6.13;;;9.20;99.90;;;;;;5054506;28;20025;-62
2022/04/16 06:44:54;;;;;;;6.95;6.28;;;9.20;99.90;;;;;;5045654;28;20121;-63
2022/04/16 06:47:20;;;;;;;9.35;7.15;;;9.40;99.90;;;;;;5034684;28;20025;-63
2022/04/16 06:49:46;;;;;;;9.45;6.82;;;9.50;99.90;;;;;;5034922;28;20020;-63
2022/04/16 06:52:12;;;;;;;8.60;7.05;;;9.40;99.90;;;;;;5036832;28;20060;-64
2022/04/16 06:54:38;;;;;;;7.68;6.78;;;9.50;99.90;;;;;;5036215;28;20060;-63
2022/04/16 06:57:04;;;;;;;6.78;6.10;;;9.60;99.90;;;;;;5034710;28;20701;-63
2022/04/16 06:59:30;;;;;;;7.35;6.32;;;9.60;99.90;;;;;;5034663;28;20068;-63
2022/04/16 07:01:56;;;;;;;7.50;6.80;;;9.50;99.90;;;;;;5038733;28;20086;-63
2022/04/16 07:04:21;;;;;;;7.28;6.10;;;9.40;99.90;;;;;;5046046;28;20065;-63
2022/04/16 07:06:47;;;;;;;6.93;6.22;;;9.50;99.90;;;;;;5034106;28;20083;-62
2022/04/16 07:09:13;;;;;;;6.80;5.63;;;9.60;99.90;;;;;;5049751;28;20090;-63
2022/04/16 07:11:38;;;;;;;10.43;6.07;;;9.60;99.90;;;;;;5053369;28;20024;-63
2022/04/16 07:14:04;;;;;;;48.10;23.13;;;9.70;99.90;;;;;;5039369;28;20124;-63
2022/04/16 07:16:29;;;;;;;8.43;6.18;;;9.70;99.90;;;;;;5039420;28;20037;-63
2022/04/16 07:18:55;;;;;;;7.78;7.03;;;9.60;99.90;;;;;;5034714;28;20053;-64
2022/04/16 07:21:21;;;;;;;6.22;5.63;;;9.60;99.90;;;;;;5053318;28;20025;-62
2022/04/16 07:23:46;;;;;;;6.90;5.47;;;9.60;99.90;;;;;;5053829;28;20033;-63
2022/04/16 07:26:12;;;;;;;9.82;8.82;;;9.70;99.90;;;;;;5053742;28;20075;-63
2022/04/16 07:28:38;;;;;;;6.57;5.50;;;9.70;99.90;;;;;;5053886;28;20021;-64
2022/04/16 07:31:03;;;;;;;5.57;5.03;;;9.70;99.90;;;;;;5053143;28;20515;-63
2022/04/16 07:33:29;;;;;;;5.57;5.07;;;9.80;99.90;;;;;;5032056;28;20025;-62
2022/04/16 07:35:55;;;;;;;4.78;4.28;;;10.00;99.90;;;;;;5034023;28;20448;-64
2022/04/16 07:38:22;;;;;;;5.22;4.40;;;10.20;99.90;;;;;;5033350;28;20056;-61
2022/04/16 07:40:47;;;;;;;4.22;3.85;;;10.20;99.90;;;;;;5033385;28;20102;-65
2022/04/16 07:43:17;;;;;;;8.68;4.15;;;10.00;99.90;;;;;;5033904;28;20483;-63
2022/04/16 07:45:43;;;;;;;5.30;4.72;;;10.10;99.90;;;;;;5033989;28;20022;-64
2022/04/16 07:48:09;;;;;;;4.90;4.40;;;10.00;99.90;;;;;;5033834;28;20018;-65
2022/04/16 07:50:35;;;;;;;5.07;4.57;;;10.00;99.90;;;;;;5033368;28;20068;-62
2022/04/16 07:53:02;;;;;;;16.40;11.68;;;10.10;99.90;;;;;;5033641;28;20385;-64
2022/04/16 07:55:31;;;;;;;5.40;4.90;;;9.90;99.90;;;;;;5033833;28;20376;-63
2022/04/16 07:57:57;;;;;;;4.78;4.38;;;9.80;99.90;;;;;;5050018;28;20167;-62
2022/04/16 08:00:23;;;;;;;6.03;4.82;;;9.70;99.90;;;;;;5051756;28;20093;-63
2022/04/16 08:02:49;;;;;;;4.25;3.85;;;9.70;99.90;;;;;;5053666;28;20032;-62
2022/04/16 08:05:14;;;;;;;10.38;5.03;;;9.70;99.90;;;;;;5048817;28;20111;-63
2022/04/16 08:07:40;;;;;;;5.45;4.75;;;10.00;99.90;;;;;;5033230;28;20026;-62
2022/04/16 08:10:07;;;;;;;4.85;4.43;;;10.10;99.90;;;;;;5033330;28;20025;-63
2022/04/16 08:12:33;;;;;;;5.30;4.18;;;10.40;99.90;;;;;;5033366;28;20022;-61
2022/04/16 08:14:58;;;;;;;5.38;4.80;;;10.30;99.90;;;;;;5033790;28;20057;-63
2022/04/16 08:17:24;;;;;;;5.88;5.05;;;10.40;99.90;;;;;;5045365;28;20033;-62
2022/04/16 08:19:49;;;;;;;4.50;4.10;;;10.50;99.90;;;;;;5018027;28;20029;-61
2022/04/16 08:22:21;;;;;;;5.60;4.05;;;10.70;99.90;;;;;;5022696;28;20047;-62
2022/04/16 08:27:31;;;;;;;7.60;4.10;;;10.60;99.90;;;;;;5021771;28;20121;-62
2022/04/16 08:29:57;;;;;;;4.90;4.10;;;10.70;99.90;;;;;;5022584;28;20115;-63
2022/04/16 08:32:23;;;;;;;4.43;4.03;;;10.80;99.90;;;;;;5023531;28;20697;-62
2022/04/16 08:34:48;;;;;;;4.18;3.88;;;10.80;99.90;;;;;;5022098;28;20120;-63
2022/04/16 08:37:14;;;;;;;4.63;4.25;;;10.80;99.90;;;;;;5022732;28;20041;-62
2022/04/16 08:39:40;;;;;;;4.97;4.57;;;10.70;99.90;;;;;;5021745;28;20025;-61
2022/04/16 08:42:05;;;;;;;4.88;4.43;;;10.60;99.90;;;;;;5020850;28;20466;-62
2022/04/16 08:44:32;;;;;;;4.80;4.30;;;10.70;99.90;;;;;;5021891;28;20044;-63
2022/04/16 08:46:59;;;;;;;4.50;4.10;;;10.60;99.90;;;;;;5020381;28;20688;-63
2022/04/16 08:49:27;;;;;;;5.55;5.03;;;10.60;99.90;;;;;;5021955;28;20065;-62
2022/04/16 08:51:55;;;;;;;7.05;6.20;;;10.60;99.90;;;;;;5019409;28;20075;-62
2022/04/16 08:54:21;;;;;;;5.78;4.57;;;10.50;99.90;;;;;;5020130;28;20044;-64
2022/04/16 08:56:47;;;;;;;6.63;4.45;;;10.50;99.90;;;;;;5021812;28;20469;-63
2022/04/16 08:59:12;;;;;;;5.25;4.80;;;10.40;99.90;;;;;;5022970;28;20037;-64
2022/04/16 09:01:38;;;;;;;4.75;4.35;;;10.20;99.90;;;;;;5021799;28;20045;-64
2022/04/16 09:04:04;;;;;;;6.57;6.00;;;10.30;99.90;;;;;;5032576;28;20045;-64
2022/04/16 09:06:29;;;;;;;6.15;5.15;;;10.40;99.90;;;;;;5024615;28;20055;-62
2022/04/16 09:08:55;;;;;;;5.82;5.30;;;10.30;99.90;;;;;;5023128;28;20033;-63
2022/04/16 09:11:24;;;;;;;5.03;4.63;;;10.20;99.90;;;;;;5023941;28;20037;-64
2022/04/16 09:13:49;;;;;;;5.93;4.90;;;10.30;99.90;;;;;;5021982;28;20064;-63
2022/04/16 09:16:16;;;;;;;5.78;4.93;;;10.40;99.90;;;;;;5025878;28;20460;-63
2022/04/16 09:18:53;;;;;;;5.78;4.00;;;10.30;99.90;;;;;;5022120;28;20471;-64
2022/04/16 09:21:23;;;;;;;5.50;5.00;;;10.20;99.90;;;;;;5023317;28;20603;-63
2022/04/16 09:23:52;;;;;;;5.38;4.82;;;10.20;99.90;;;;;;5021595;28;20041;-63
2022/04/16 09:26:29;;;;;;;7.30;5.15;;;10.10;99.90;;;;;;5026959;28;20076;-63
2022/04/16 09:28:55;;;;;;;7.95;4.35;;;10.10;99.90;;;;;;5022391;28;20034;-62
2022/04/16 09:31:28;;;;;;;5.65;5.15;;;10.00;99.90;;;;;;5023816;28;20038;-62
2022/04/16 09:33:54;;;;;;;12.47;7.17;;;9.90;99.90;;;;;;5021958;28;20025;-63
2022/04/16 09:36:27;;;;;;;11.48;7.97;;;9.80;99.90;;;;;;5023398;28;20021;-62
2022/04/16 09:39:05;;;;;;;7.63;6.38;;;9.50;99.90;;;;;;5024942;28;20030;-62
2022/04/16 09:41:35;;;;;;;10.50;8.65;;;9.20;99.90;;;;;;5022196;28;20033;-62
2022/04/16 09:44:02;;;;;;;12.50;7.75;;;8.90;99.90;;;;;;5026306;28;20040;-63
2022/04/16 09:46:30;;;;;;;10.40;8.55;;;8.80;99.90;;;;;;5021602;28;20072;-62
2022/04/16 09:49:04;;;;;;;11.70;7.75;;;8.70;99.90;;;;;;5023034;28;20033;-62
2022/04/16 09:51:35;;;;;;;9.25;8.02;;;8.60;99.90;;;;;;5021653;28;20028;-63
2022/04/16 09:54:06;;;;;;;47.88;11.77;;;8.50;99.90;;;;;;5027861;28;20042;-63
2022/04/16 09:56:38;;;;;;;10.50;7.75;;;8.50;99.90;;;;;;5031029;28;20155;-63
2022/04/16 09:59:06;;;;;;;9.82;6.70;;;8.50;99.90;;;;;;5031523;28;20028;-62
2022/04/16 10:01:33;;;;;;;7.90;7.03;;;8.50;99.90;;;;;;5043754;28;20025;-63
2022/04/16 10:04:02;;;;;;;10.25;7.18;;;8.60;99.90;;;;;;5047222;28;20024;-63
2022/04/16 10:06:31;;;;;;;7.82;6.88;;;8.60;99.90;;;;;;5031300;28;20022;-64
2022/04/16 10:08:58;;;;;;;7.13;6.07;;;8.60;99.90;;;;;;5031120;28;20105;-63
2022/04/16 10:12:59;;;;;;;7.63;6.82;;;8.80;99.90;;;;;;5031123;28;20026;-63
2022/04/16 10:14:42;;;;;;;6.83;6.23;;;8.80;99.90;;;;;;5031481;28;20465;-64
2022/04/16 10:17:14;;;;;;;10.43;7.47;;;8.90;99.90;;;;;;5029832;28;20072;-64
2022/04/16 10:19:45;;;;;;;9.13;6.68;;;9.00;99.90;;;;;;5030884;28;20032;-63
2022/04/16 10:22:27;;;;;;;6.93;5.85;;;9.10;99.90;;;;;;5030592;28;20057;-62
2022/04/16 10:24:57;;;;;;;8.30;6.30;;;9.20;99.90;;;;;;5031111;28;20078;-63
2022/04/16 10:27:27;;;;;;;7.78;6.40;;;9.10;99.90;;;;;;5030716;28;20109;-62
2022/04/16 10:29:58;;;;;;;10.60;7.57;;;9.20;99.90;;;;;;5030917;28;20028;-62
2022/04/16 10:32:36;;;;;;;6.70;5.65;;;9.10;99.90;;;;;;5031337;28;20022;-63
2022/04/16 10:35:06;;;;;;;7.15;5.55;;;9.00;99.90;;;;;;5033952;28;20052;-62
2022/04/16 10:37:40;;;;;;;9.20;6.82;;;9.10;99.90;;;;;;5030840;28;20029;-63
2022/04/16 10:40:25;;;;;;;7.82;6.72;;;9.20;99.90;;;;;;5030962;28;20025;-64
2022/04/16 10:42:52;;;;;;;8.65;6.57;;;9.20;99.90;;;;;;5031103;28;20116;-62
2022/04/16 10:45:18;;;;;;;8.73;6.82;;;9.30;99.90;;;;;;5040761;28;20036;-63
2022/04/16 10:47:43;;;;;;;6.97;6.25;;;9.40;99.90;;;;;;5036797;28;20342;-64
2022/04/16 10:50:19;;;;;;;6.63;5.32;;;9.10;99.90;;;;;;5021010;28;20047;-64
2022/04/16 10:53:11;;;;;;;5.88;4.80;;;9.10;99.90;;;;;;5018794;28;20132;-61
2022/04/16 10:55:47;;;;;;;5.85;4.78;;;8.80;99.90;;;;;;5016010;28;20037;-63
2022/04/16 10:58:13;;;;;;;13.77;5.88;;;8.70;99.90;;;;;;5024126;28;20037;-63
2022/04/16 11:00:46;;;;;;;7.20;5.78;;;8.60;99.90;;;;;;5025878;28;20059;-62
2022/04/16 11:03:27;;;;;;;6.15;5.38;;;8.60;99.90;;;;;;5027830;28;20086;-62
2022/04/16 11:06:03;;;;;;;9.05;6.53;;;8.60;99.90;;;;;;5023217;28;20129;-62
2022/04/16 11:08:32;;;;;;;5.95;5.15;;;8.50;99.90;;;;;;5026204;28;20352;-62
2022/04/16 11:10:58;;;;;;;8.65;6.95;;;8.40;99.90;;;;;;5026705;28;20430;-62
2022/04/16 11:13:26;;;;;;;7.82;6.05;;;8.30;99.90;;;;;;5024433;28;20041;-64
2022/04/16 11:15:53;;;;;;;8.18;6.80;;;8.20;99.90;;;;;;5022274;28;20033;-64
2022/04/16 11:18:19;;;;;;;7.95;6.22;;;8.30;99.90;;;;;;5024179;28;20481;-64
2022/04/16 11:20:55;;;;;;;8.80;7.38;;;8.20;99.90;;;;;;5022019;28;20041;-64
2022/04/16 11:23:25;;;;;;;7.53;6.57;;;8.20;99.90;;;;;;5029296;28;20033;-62
2022/04/16 11:34:20;;;;;;;8.00;6.20;;;8.40;99.90;;;;;;5026760;28;20044;-64
2022/04/16 11:36:53;;;;;;;11.27;6.72;;;8.70;99.90;;;;;;5030453;28;20029;-65
2022/04/16 11:39:24;;;;;;;15.50;9.85;;;8.80;99.90;;;;;;5030457;28;20079;-62
2022/04/16 11:41:54;;;;;;;9.40;7.07;;;9.00;99.90;;;;;;5030830;28;22365;-62
2022/04/16 11:44:42;;;;;;;11.13;7.55;;;9.20;99.90;;;;;;5030522;28;20029;-65
2022/04/16 11:47:15;;;;;;;9.38;7.00;;;9.40;99.90;;;;;;5030252;28;20171;-64
2022/04/16 11:49:46;;;;;;;6.65;4.70;;;9.70;99.90;;;;;;5027650;28;20041;-63
2022/04/16 11:52:13;;;;;;;7.47;4.45;;;9.90;99.90;;;;;;5026292;28;20034;-65
2022/04/16 11:54:39;;;;;;;5.15;4.60;;;10.20;99.90;;;;;;5025465;28;20075;-64
2022/04/16 11:57:05;;;;;;;5.03;4.38;;;10.60;99.90;;;;;;5027219;28;20579;-64
2022/04/16 11:59:32;;;;;;;5.57;4.68;;;10.60;99.90;;;;;;5025602;28;20112;-62
2022/04/16 12:02:08;;;;;;;12.23;6.90;;;10.80;99.90;;;;;;5029543;28;20037;-62
2022/04/16 12:04:38;;;;;;;11.68;7.88;;;11.10;99.90;;;;;;5031676;28;20512;-62
2022/04/16 12:07:16;;;;;;;6.75;5.60;;;11.10;99.90;;;;;;5029185;28;20045;-62
2022/04/16 12:09:48;;;;;;;8.80;4.80;;;11.50;99.90;;;;;;5029412;28;20025;-65
2022/04/16 12:12:16;;;;;;;6.23;4.40;;;11.70;98.50;;;;;;5031284;28;20033;-65
2022/04/16 12:14:50;;;;;;;6.60;4.70;;;13.10;99.30;;;;;;5030085;28;20288;-65
2022/04/16 12:17:24;;;;;;;6.13;4.68;;;14.80;95.50;;;;;;5029754;28;20053;-63
2022/04/16 12:20:05;;;;;;;7.68;5.95;;;15.40;86.30;;;;;;5023337;28;20049;-65
2022/04/16 12:22:49;;;;;;;8.85;4.45;;;16.40;88.70;;;;;;5026022;28;20687;-65
2022/04/16 12:25:17;;;;;;;5.25;4.75;;;15.70;83.60;;;;;;5026163;28;20033;-64
2022/04/16 12:27:45;;;;;;;5.97;5.07;;;14.90;85.70;;;;;;5025055;28;20034;-63
2022/04/16 12:30:18;;;;;;;5.05;4.55;;;13.80;88.30;;;;;;5027342;28;20053;-61
2022/04/16 12:33:01;;;;;;;5.63;4.75;;;12.80;91.20;;;;;;5032866;28;20036;-64
2022/04/16 12:35:28;;;;;;;5.87;5.27;;;12.00;93.30;;;;;;5023804;28;20124;-62
2022/04/16 12:37:55;;;;;;;6.03;5.35;;;11.50;95.40;;;;;;5025607;28;20120;-65
2022/04/16 12:40:24;;;;;;;8.88;6.55;;;11.50;97.80;;;;;;5031910;28;20061;-64
2022/04/16 12:42:51;;;;;;;6.03;5.35;;;11.10;97.90;;;;;;5025671;28;20507;-62
2022/04/16 12:45:17;;;;;;;6.38;5.68;;;10.90;99.00;;;;;;5027398;28;20025;-62
2022/04/16 12:47:43;;;;;;;7.20;4.97;;;10.80;98.90;;;;;;5027683;28;20075;-63
2022/04/16 12:50:10;;;;;;;6.20;5.60;;;10.50;99.90;;;;;;5029323;28;20032;-64
2022/04/16 12:52:36;;;;;;;20.35;6.78;;;10.30;99.90;;;;;;5026065;28;20021;-64
2022/04/16 12:55:03;;;;;;;7.25;6.38;;;10.30;99.90;;;;;;5031349;28;20082;-63
2022/04/16 12:57:28;;;;;;;9.63;6.63;;;10.30;99.90;;;;;;5026534;28;20064;-64
2022/04/16 12:59:54;;;;;;;10.63;6.10;;;10.00;99.90;;;;;;5026456;28;20471;-63
2022/04/16 13:02:20;;;;;;;7.00;6.30;;;9.80;99.90;;;;;;5027635;28;20040;-65
2022/04/16 13:04:46;;;;;;;7.43;6.72;;;9.70;99.90;;;;;;5023514;28;20033;-64
2022/04/16 13:07:12;;;;;;;7.57;6.78;;;9.70;99.90;;;;;;5029370;28;20029;-62
2022/04/16 13:09:38;;;;;;;7.10;6.28;;;9.70;99.90;;;;;;5034197;28;20014;-63
2022/04/16 13:12:03;;;;;;;7.68;6.20;;;9.90;99.90;;;;;;5052357;28;20373;-64
2022/04/16 13:14:29;;;;;;;8.20;7.40;;;9.90;99.90;;;;;;5052271;28;20052;-62
2022/04/16 13:16:55;;;;;;;8.20;6.65;;;9.90;99.90;;;;;;5052479;28;20032;-64
2022/04/16 13:19:22;;;;;;;6.10;5.50;;;10.00;99.90;;;;;;5049776;28;20104;-63